createdAt,value
2023-04-22T00:00:17.182Z,84.37
2023-04-22T00:03:05.288Z,84.26
2023-04-22T00:05:53.639Z,83.71
2023-04-22T00:08:40.196Z,84.55
2023-04-22T00:11:27.286Z,85.38
2023-04-22T00:14:13.840Z,87.29
2023-04-22T00:17:00.505Z,86.50
2023-04-22T00:19:47.729Z,86.96
2023-04-22T00:22:35.752Z,88.47
2023-04-22T00:25:22.492Z,88.13
2023-04-22T00:28:09.390Z,88.01
2023-04-22T00:30:56.065Z,88.11
2023-04-22T00:33:43.141Z,88.43
2023-04-22T00:36:29.799Z,88.37
2023-04-22T00:39:18.046Z,89.36
2023-04-22T00:42:04.904Z,88.88
2023-04-22T00:44:52.583Z,88.96
2023-04-22T00:47:39.278Z,90.95
2023-04-22T00:50:26.090Z,90.84
2023-04-22T00:53:12.890Z,92.07
2023-04-22T00:56:01.254Z,91.07
2023-04-22T00:58:48.134Z,90.87
2023-04-22T01:01:35.243Z,91.00
2023-04-22T01:04:23.220Z,90.91
2023-04-22T01:07:09.926Z,91.19
2023-04-22T01:09:56.729Z,91.44
2023-04-22T01:12:44.834Z,91.47
2023-04-22T01:15:31.734Z,91.63
2023-04-22T01:18:19.871Z,91.89
2023-04-22T01:21:07.278Z,94.61
2023-04-22T01:23:55.761Z,93.10
2023-04-22T01:26:42.284Z,92.76
2023-04-22T01:29:29.223Z,93.10
2023-04-22T01:32:15.878Z,94.28
2023-04-22T01:35:02.884Z,93.42
2023-04-22T01:37:49.403Z,93.21
2023-04-22T01:40:39.165Z,92.46
2023-04-22T01:43:26.474Z,92.21
2023-04-22T01:46:13.353Z,93.81
2023-04-22T01:49:00.025Z,93.19
2023-04-22T01:51:46.657Z,90.68
2023-04-22T01:54:33.996Z,91.64
2023-04-22T01:57:22.098Z,91.61
2023-04-22T02:00:10.335Z,90.69
2023-04-22T02:03:00.009Z,92.20
2023-04-22T02:05:46.836Z,92.04
2023-04-22T02:08:33.588Z,92.05
2023-04-22T02:11:21.418Z,90.25
2023-04-22T02:14:09.643Z,88.71
2023-04-22T02:16:56.491Z,87.06
2023-04-22T02:19:43.444Z,87.57
2023-04-22T02:22:30.696Z,86.65
2023-04-22T02:25:17.811Z,85.27
2023-04-22T02:28:04.336Z,85.50
2023-04-22T02:30:52.745Z,85.36
2023-04-22T02:33:42.461Z,86.53
2023-04-22T02:36:29.304Z,87.19
2023-04-22T02:39:16.046Z,88.14
2023-04-22T02:42:03.010Z,88.00
2023-04-22T02:44:49.715Z,89.64
2023-04-22T02:47:38.011Z,90.20
2023-04-22T02:50:24.697Z,90.97
2023-04-22T02:53:11.614Z,89.91
2023-04-22T02:55:58.525Z,90.29
2023-04-22T02:58:45.263Z,90.39
2023-04-22T03:01:32.355Z,90.93
2023-04-22T03:04:23.413Z,91.59
2023-04-22T03:07:10.403Z,90.84
2023-04-22T03:09:57.017Z,89.80
2023-04-22T03:12:44.312Z,89.96
2023-04-22T03:15:31.734Z,90.55
2023-04-22T03:18:18.208Z,90.65
2023-04-22T03:21:07.438Z,90.45
2023-04-22T03:23:54.006Z,94.43
2023-04-22T03:26:41.236Z,94.85
2023-04-22T03:29:28.424Z,93.69
2023-04-22T03:32:15.264Z,94.59
2023-04-22T03:35:01.879Z,95.49
2023-04-22T03:37:50.442Z,93.88
2023-04-22T03:40:42.286Z,92.87
2023-04-22T03:43:51.702Z,90.45
2023-04-22T03:46:38.545Z,91.05
2023-04-22T03:49:34.433Z,91.99
2023-04-22T03:52:21.188Z,92.44
2023-04-22T03:55:17.288Z,93.22
2023-04-22T03:58:04.495Z,93.66
2023-04-22T04:00:51.217Z,93.54
2023-04-22T04:03:39.250Z,93.34
2023-04-22T04:06:28.194Z,91.25
2023-04-22T04:09:14.769Z,90.77
2023-04-22T04:12:03.072Z,90.41
2023-04-22T04:14:55.100Z,89.33
2023-04-22T04:17:42.953Z,89.51
2023-04-22T04:20:29.734Z,88.89
2023-04-22T04:23:16.150Z,89.54
2023-04-22T04:26:05.835Z,89.15
2023-04-22T04:29:01.903Z,89.24
2023-04-22T04:31:48.987Z,89.01
2023-04-22T04:34:38.314Z,87.95
2023-04-22T04:37:27.554Z,88.43
2023-04-22T04:40:19.247Z,85.15
2023-04-22T04:43:13.082Z,81.61
2023-04-22T04:46:10.506Z,80.46
2023-04-22T04:49:02.917Z,79.53
2023-04-22T04:52:03.522Z,79.41
2023-04-22T04:54:50.044Z,80.57
2023-04-22T04:57:38.384Z,78.33
2023-04-22T05:00:29.314Z,79.38
2023-04-22T05:03:21.943Z,77.45
2023-04-22T05:06:10.864Z,75.02
2023-04-22T05:09:00.534Z,73.46
2023-04-22T05:11:46.948Z,63.20
2023-04-22T05:14:38.719Z,60.77
2023-04-22T05:17:25.646Z,53.73
2023-04-22T05:20:14.340Z,52.62
2023-04-22T05:23:01.462Z,49.88
2023-04-22T05:25:48.466Z,50.21
2023-04-22T05:28:36.250Z,49.48
2023-04-22T05:31:23.856Z,49.96
2023-04-22T05:34:12.068Z,50.49
2023-04-22T05:37:01.386Z,51.58
2023-04-22T05:39:48.247Z,52.68
2023-04-22T05:42:35.993Z,55.55
2023-04-22T05:45:22.653Z,56.26
2023-04-22T05:48:10.068Z,60.16
2023-04-22T05:51:02.692Z,62.75
2023-04-22T05:53:51.776Z,65.56
2023-04-22T05:56:38.581Z,65.95
2023-04-22T05:59:25.232Z,68.67
2023-04-22T06:02:12.015Z,72.56
2023-04-22T06:05:01.130Z,73.01
2023-04-22T06:07:47.903Z,75.01
2023-04-22T06:10:36.178Z,72.96
2023-04-22T06:13:23.052Z,69.34
2023-04-22T06:16:10.255Z,67.69
2023-04-22T06:18:57.070Z,68.29
2023-04-22T06:21:43.896Z,61.21
2023-04-22T06:24:30.523Z,54.98
2023-04-22T06:27:18.656Z,55.76
2023-04-22T06:30:06.187Z,57.27
2023-04-22T06:32:53.456Z,59.86
2023-04-22T06:35:39.993Z,62.03
2023-04-22T06:38:26.884Z,61.52
2023-04-22T06:41:46.149Z,62.87
2023-04-22T06:45:04.344Z,64.24
2023-04-22T06:48:01.964Z,66.83
2023-04-22T06:51:03.820Z,63.51
2023-04-22T06:53:51.221Z,63.83
2023-04-22T06:56:38.466Z,63.28
2023-04-22T06:59:24.921Z,61.21
2023-04-22T07:02:13.369Z,61.81
2023-04-22T07:05:00.634Z,63.48
2023-04-22T07:07:48.022Z,60.35
2023-04-22T07:10:39.275Z,58.30
2023-04-22T07:13:48.238Z,57.46
2023-04-22T07:16:34.759Z,57.45
2023-04-22T07:19:22.833Z,57.21
2023-04-22T07:22:09.648Z,56.19
2023-04-22T07:24:56.370Z,49.43
2023-04-22T07:27:43.111Z,52.29
2023-04-22T07:30:29.989Z,50.85
2023-04-22T07:33:16.800Z,49.24
2023-04-22T07:36:05.343Z,48.40
2023-04-22T07:38:52.232Z,47.30
2023-04-22T07:41:39.192Z,48.04
2023-04-22T07:44:25.846Z,47.30
2023-04-22T07:47:12.922Z,47.54
2023-04-22T07:49:59.839Z,44.70
2023-04-22T07:52:47.712Z,44.32
2023-04-22T07:55:35.209Z,42.55
2023-04-22T07:58:21.773Z,43.94
2023-04-22T08:01:08.585Z,43.71
2023-04-22T08:03:55.662Z,44.45
2023-04-22T08:06:42.859Z,44.56
2023-04-22T08:09:30.782Z,45.25
2023-04-22T08:12:17.571Z,45.16
2023-04-22T08:15:04.836Z,46.19
2023-04-22T08:17:51.689Z,45.09
2023-04-22T08:20:38.445Z,46.65
2023-04-22T08:23:25.540Z,44.93
2023-04-22T08:26:15.281Z,43.05
2023-04-22T08:29:02.478Z,46.30
2023-04-22T08:31:49.288Z,46.74
2023-04-22T08:34:37.178Z,44.40
2023-04-22T08:37:24.092Z,43.09
2023-04-22T08:40:11.261Z,44.61
2023-04-22T08:42:59.635Z,42.88
2023-04-22T08:45:46.493Z,40.47
2023-04-22T08:48:33.799Z,39.45
2023-04-22T08:51:20.270Z,40.51
2023-04-22T08:54:07.429Z,37.93
2023-04-22T08:56:55.133Z,37.31
2023-04-22T08:59:43.502Z,36.93
2023-04-22T09:02:33.171Z,36.09
2023-04-22T09:05:21.535Z,33.44
2023-04-22T09:08:09.037Z,32.80
2023-04-22T09:10:55.767Z,35.63
2023-04-22T09:13:43.531Z,34.30
2023-04-22T09:16:32.900Z,34.21
2023-04-22T09:19:19.669Z,33.01
2023-04-22T09:22:07.194Z,34.34
2023-04-22T09:24:57.775Z,34.24
2023-04-22T09:27:44.543Z,36.02
2023-04-22T09:30:47.445Z,36.13
2023-04-22T09:33:40.209Z,36.91
2023-04-22T09:36:28.345Z,39.04
2023-04-22T09:39:15.031Z,37.52
2023-04-22T09:42:02.073Z,36.95
2023-04-22T09:44:49.761Z,36.50
2023-04-22T09:47:37.617Z,37.27
2023-04-22T09:50:27.985Z,38.38
2023-04-22T09:53:17.667Z,39.64
2023-04-22T09:56:05.970Z,38.00
2023-04-22T09:58:53.725Z,38.55
2023-04-22T10:01:41.528Z,36.27
2023-04-22T10:04:28.868Z,35.81
2023-04-22T10:07:17.687Z,35.39
2023-04-22T10:10:04.638Z,35.71
2023-04-22T10:12:53.039Z,34.41
2023-04-22T10:15:42.507Z,35.66
2023-04-22T10:18:30.893Z,36.08
2023-04-22T10:21:19.782Z,34.59
2023-04-22T10:24:08.218Z,35.84
2023-04-22T10:26:57.910Z,37.70
2023-04-22T10:29:44.711Z,35.78
2023-04-22T10:32:32.061Z,34.67
2023-04-22T10:35:29.104Z,34.28
2023-04-22T10:38:15.446Z,35.46
2023-04-22T10:41:04.450Z,33.38
2023-04-22T10:43:58.709Z,34.29
2023-04-22T10:47:02.051Z,34.19
2023-04-22T10:49:51.668Z,32.90
2023-04-22T10:52:38.302Z,32.59
2023-04-22T10:55:26.193Z,34.01
2023-04-22T10:58:22.554Z,33.12
2023-04-22T11:01:16.803Z,33.78
2023-04-22T11:04:23.082Z,33.56
2023-04-22T11:07:17.122Z,34.54
2023-04-22T11:10:15.891Z,34.87
2023-04-22T11:13:03.508Z,35.02
2023-04-22T11:15:56.035Z,35.25
2023-04-22T11:18:42.732Z,34.94
2023-04-22T11:21:29.382Z,32.87
2023-04-22T11:24:20.703Z,34.53
2023-04-22T11:27:07.428Z,35.30
2023-04-22T11:30:03.422Z,36.32
2023-04-22T11:32:53.036Z,36.57
2023-04-22T11:35:39.750Z,33.97
2023-04-22T11:38:26.587Z,35.56
2023-04-22T11:41:13.382Z,34.80
2023-04-22T11:44:01.526Z,34.82
2023-04-22T11:46:48.271Z,32.38
2023-04-22T11:49:36.786Z,33.68
2023-04-22T11:52:23.700Z,34.45
2023-04-22T11:55:12.006Z,31.37
2023-04-22T11:58:00.498Z,32.86
2023-04-22T12:00:48.504Z,32.10
2023-04-22T12:03:35.947Z,31.64
2023-04-22T12:06:24.410Z,32.75
2023-04-22T12:09:13.928Z,34.75
2023-04-22T12:12:01.709Z,33.22
2023-04-22T12:14:49.418Z,33.56
2023-04-22T12:17:36.151Z,31.15
2023-04-22T12:20:24.594Z,30.46
2023-04-22T12:23:16.787Z,29.76
2023-04-22T12:26:03.356Z,31.09
2023-04-22T12:28:50.993Z,30.24
2023-04-22T12:31:38.736Z,30.24
2023-04-22T12:34:25.537Z,29.65
2023-04-22T12:37:12.701Z,31.71
2023-04-22T12:40:01.014Z,30.70
2023-04-22T12:42:47.773Z,28.85
2023-04-22T12:45:34.748Z,28.81
2023-04-22T12:48:21.564Z,29.72
2023-04-22T12:51:08.306Z,29.05
2023-04-22T12:53:54.988Z,29.53
2023-04-22T12:56:43.190Z,29.09
2023-04-22T12:59:29.783Z,29.65
2023-04-22T13:02:16.768Z,29.13
2023-04-22T13:05:03.383Z,27.92
2023-04-22T13:07:59.684Z,28.05
2023-04-22T13:10:53.106Z,29.70
2023-04-22T13:13:41.191Z,28.99
2023-04-22T13:16:28.054Z,29.17
2023-04-22T13:19:14.968Z,30.43
2023-04-22T13:22:01.847Z,29.82
2023-04-22T13:24:48.224Z,29.67
2023-04-22T13:27:35.136Z,29.81
2023-04-22T13:30:23.387Z,30.27
2023-04-22T13:33:10.309Z,29.42
2023-04-22T13:35:57.084Z,30.23
2023-04-22T13:38:44.005Z,31.23
2023-04-22T13:41:30.785Z,30.50
2023-04-22T13:44:17.588Z,30.77
2023-04-22T13:47:05.877Z,30.60
2023-04-22T13:49:52.709Z,29.77
2023-04-22T13:52:39.383Z,29.89
2023-04-22T13:55:26.786Z,30.78
2023-04-22T13:58:13.738Z,29.56
2023-04-22T14:01:05.877Z,30.92
2023-04-22T14:03:55.587Z,30.02
2023-04-22T14:06:42.265Z,30.66
2023-04-22T14:09:29.196Z,29.24
2023-04-22T14:12:16.110Z,30.32
2023-04-22T14:15:02.803Z,30.95
2023-04-22T14:17:49.842Z,31.30
2023-04-22T14:20:38.337Z,30.13
2023-04-22T14:23:24.802Z,29.53
2023-04-22T14:26:12.876Z,30.20
2023-04-22T14:28:59.914Z,29.25
2023-04-22T14:31:46.929Z,29.05
2023-04-22T14:34:33.847Z,29.83
2023-04-22T14:37:23.444Z,31.09
2023-04-22T14:40:12.407Z,28.90
2023-04-22T14:43:00.659Z,28.72
2023-04-22T14:45:47.877Z,27.52
2023-04-22T14:48:35.640Z,28.85
2023-04-22T14:51:22.068Z,28.46
2023-04-22T14:54:10.177Z,29.16
2023-04-22T14:56:56.949Z,29.49
2023-04-22T14:59:43.771Z,30.21
2023-04-22T15:02:32.624Z,28.91
2023-04-22T15:05:19.345Z,29.95
2023-04-22T15:08:06.561Z,30.02
2023-04-22T15:10:54.452Z,29.48
2023-04-22T15:13:41.267Z,28.69
2023-04-22T15:16:28.039Z,29.06
2023-04-22T15:19:15.088Z,29.11
2023-04-22T15:22:01.841Z,29.16
2023-04-22T15:24:48.542Z,31.16
2023-04-22T15:27:36.806Z,29.73
2023-04-22T15:30:24.064Z,30.80
2023-04-22T15:33:10.571Z,29.34
2023-04-22T15:35:57.446Z,30.33
2023-04-22T15:38:44.320Z,30.86
2023-04-22T15:41:31.173Z,29.92
2023-04-22T15:44:19.518Z,30.45
2023-04-22T15:47:07.286Z,29.71
2023-04-22T15:49:54.438Z,30.69
2023-04-22T15:52:41.051Z,31.37
2023-04-22T15:55:28.075Z,30.55
2023-04-22T15:58:14.734Z,29.88
2023-04-22T16:01:17.458Z,28.13
2023-04-22T16:04:06.150Z,30.27
2023-04-22T16:06:53.498Z,30.73
2023-04-22T16:09:40.269Z,30.58
2023-04-22T16:12:27.226Z,32.10
2023-04-22T16:15:14.189Z,31.36
2023-04-22T16:18:03.125Z,30.80
2023-04-22T16:20:50.217Z,31.57
2023-04-22T16:23:37.485Z,33.83
2023-04-22T16:26:24.050Z,34.75
2023-04-22T16:29:10.694Z,34.87
2023-04-22T16:31:57.715Z,35.49
2023-04-22T16:34:45.956Z,35.78
2023-04-22T16:37:32.504Z,34.44
2023-04-22T16:40:19.396Z,34.32
2023-04-22T16:43:06.428Z,36.10
2023-04-22T16:45:53.096Z,35.51
2023-04-22T16:48:39.820Z,35.01
2023-04-22T16:51:28.244Z,35.40
2023-04-22T16:54:15.007Z,36.64
2023-04-22T16:57:02.067Z,37.37
2023-04-22T16:59:48.793Z,37.47
2023-04-22T17:02:36.290Z,37.52
2023-04-22T17:05:23.201Z,38.35
2023-04-22T17:08:11.478Z,36.70
2023-04-22T17:10:58.200Z,37.74
2023-04-22T17:13:45.039Z,38.61
2023-04-22T17:16:32.424Z,39.16
2023-04-22T17:19:18.990Z,39.58
2023-04-22T17:22:05.937Z,40.18
2023-04-22T17:24:54.072Z,40.20
2023-04-22T17:27:40.552Z,41.09
2023-04-22T17:30:27.393Z,41.94
2023-04-22T17:33:14.196Z,42.58
2023-04-22T17:36:00.969Z,45.55
2023-04-22T17:38:47.909Z,45.86
2023-04-22T17:41:36.172Z,47.21
2023-04-22T17:44:25.836Z,47.65
2023-04-22T17:47:13.857Z,49.74
2023-04-22T17:50:01.297Z,49.14
2023-04-22T17:52:48.029Z,51.24
2023-04-22T17:55:35.354Z,51.03
2023-04-22T17:58:23.157Z,52.16
2023-04-22T18:01:10.246Z,53.95
2023-04-22T18:03:57.056Z,54.46
2023-04-22T18:06:43.680Z,55.73
2023-04-22T18:09:30.566Z,55.80
2023-04-22T18:12:17.414Z,57.05
2023-04-22T18:15:06.804Z,57.46
2023-04-22T18:17:53.363Z,57.39
2023-04-22T18:20:40.319Z,58.25
2023-04-22T18:23:26.954Z,58.62
2023-04-22T18:26:13.760Z,60.42
2023-04-22T18:29:00.822Z,60.33
2023-04-22T18:31:48.688Z,60.10
2023-04-22T18:34:35.570Z,60.92
2023-04-22T18:37:22.358Z,60.20
2023-04-22T18:40:10.279Z,61.51
2023-04-22T18:42:57.000Z,61.67
2023-04-22T18:45:43.673Z,61.76
2023-04-22T18:48:32.057Z,62.42
2023-04-22T18:51:18.662Z,62.70
2023-04-22T18:54:05.826Z,63.65
2023-04-22T18:56:52.722Z,63.43
2023-04-22T18:59:39.817Z,63.50
2023-04-22T19:02:26.827Z,64.62
2023-04-22T19:05:15.303Z,64.00
2023-04-22T19:08:01.780Z,64.21
2023-04-22T19:10:48.560Z,64.62
2023-04-22T19:13:35.400Z,65.18
2023-04-22T19:16:24.275Z,65.62
2023-04-22T19:19:12.722Z,65.47
2023-04-22T19:22:00.910Z,65.44
2023-04-22T19:24:48.310Z,65.75
2023-04-22T19:27:35.361Z,65.64
2023-04-22T19:30:23.100Z,65.87
2023-04-22T19:33:09.946Z,67.02
2023-04-22T19:35:56.766Z,66.31
2023-04-22T19:38:44.924Z,66.83
2023-04-22T19:41:33.560Z,67.89
2023-04-22T19:44:20.484Z,67.21
2023-04-22T19:47:08.474Z,67.84
2023-04-22T19:49:58.121Z,66.80
2023-04-22T19:52:48.681Z,67.32
2023-04-22T19:55:39.363Z,67.52
2023-04-22T19:58:28.714Z,68.35
2023-04-22T20:01:15.873Z,67.74
2023-04-22T20:04:15.661Z,68.29
2023-04-22T20:07:04.216Z,67.13
2023-04-22T20:09:53.116Z,67.34
2023-04-22T20:12:41.499Z,68.50
2023-04-22T20:15:28.661Z,70.06
2023-04-22T20:18:15.429Z,70.24
2023-04-22T20:21:02.153Z,71.11
2023-04-22T20:23:51.404Z,70.44
2023-04-22T20:26:38.666Z,70.15
2023-04-22T20:29:27.328Z,71.06
2023-04-22T20:32:14.101Z,70.82
2023-04-22T20:35:01.535Z,70.95
2023-04-22T20:37:50.928Z,71.23
2023-04-22T20:40:38.699Z,70.85
2023-04-22T20:43:25.529Z,72.07
2023-04-22T20:46:13.734Z,72.97
2023-04-22T20:49:00.538Z,72.08
2023-04-22T20:51:47.474Z,74.08
2023-04-22T20:54:34.342Z,74.03
2023-04-22T20:57:22.735Z,73.02
2023-04-22T21:00:11.658Z,72.81
2023-04-22T21:03:00.826Z,73.91
2023-04-22T21:05:47.648Z,72.26
2023-04-22T21:08:36.894Z,72.80
2023-04-22T21:11:24.150Z,74.75
2023-04-22T21:14:11.950Z,75.08
2023-04-22T21:17:02.489Z,77.00
2023-04-22T21:19:51.668Z,75.82
2023-04-22T21:22:39.245Z,75.44
2023-04-22T21:25:26.878Z,74.21
2023-04-22T21:28:14.186Z,74.39
2023-04-22T21:31:01.828Z,73.57
2023-04-22T21:33:48.268Z,73.55
2023-04-22T21:36:36.490Z,71.98
2023-04-22T21:39:23.418Z,71.77
2023-04-22T21:42:10.585Z,69.73
2023-04-22T21:44:57.366Z,69.38
2023-04-22T21:47:44.290Z,68.65
2023-04-22T21:50:31.556Z,66.90
2023-04-22T21:53:20.789Z,65.09
2023-04-22T21:56:07.832Z,64.89
2023-04-22T21:58:55.708Z,64.54
2023-04-22T22:01:42.369Z,64.69
2023-04-22T22:04:29.249Z,63.69
2023-04-22T22:07:17.591Z,63.01
2023-04-22T22:10:06.594Z,62.62
2023-04-22T22:12:53.263Z,62.32
2023-04-22T22:15:40.121Z,60.97
2023-04-22T22:18:27.134Z,60.52
2023-04-22T22:21:14.029Z,59.68
2023-04-22T22:24:00.800Z,58.17
2023-04-22T22:26:49.188Z,57.02
2023-04-22T22:29:35.902Z,57.45
2023-04-22T22:32:22.624Z,57.08
2023-04-22T22:35:10.205Z,56.97
2023-04-22T22:37:56.779Z,56.67
2023-04-22T22:40:43.549Z,56.76
2023-04-22T22:43:31.820Z,56.44
2023-04-22T22:46:18.864Z,55.42
2023-04-22T22:49:05.619Z,56.12
2023-04-22T22:51:52.425Z,55.66
2023-04-22T22:54:40.429Z,55.75
2023-04-22T22:57:27.479Z,56.09
2023-04-22T23:00:16.303Z,56.20
2023-04-22T23:03:03.041Z,55.24
2023-04-22T23:05:49.678Z,56.25
2023-04-22T23:08:36.464Z,55.35
2023-04-22T23:11:23.238Z,54.61
2023-04-22T23:14:10.731Z,54.17
2023-04-22T23:16:58.873Z,53.54
2023-04-22T23:19:46.459Z,54.04
2023-04-22T23:22:34.864Z,54.34
2023-04-22T23:25:21.753Z,53.92
2023-04-22T23:28:08.762Z,53.10
2023-04-22T23:30:56.915Z,53.25
2023-04-22T23:33:46.378Z,53.43
2023-04-22T23:36:36.719Z,54.38
2023-04-22T23:39:23.411Z,54.08
2023-04-22T23:42:10.035Z,53.95
2023-04-22T23:44:56.803Z,54.01
2023-04-22T23:47:43.589Z,54.32
2023-04-22T23:50:31.694Z,54.24
2023-04-22T23:53:18.662Z,55.58
2023-04-22T23:56:05.995Z,56.52
2023-04-22T23:58:54.314Z,56.10
